sensor_id;sensor_type;location;lat;lon;timestamp;pressure;altitude;pressure_sealevel;temperature;humidity
50103;BME280;35993;52.604;10.078;2022-07-29T00:00:42;101534.16;;;14.94;58.88
50103;BME280;35993;52.604;10.078;2022-07-29T00:03:13;101529.75;;;14.93;59.08
50103;BME280;35993;52.604;10.078;2022-07-29T00:05:40;101533.53;;;14.92;58.97
50103;BME280;35993;52.604;10.078;2022-07-29T00:08:06;101523.66;;;14.91;59.23
50103;BME280;35993;52.604;10.078;2022-07-29T00:10:32;101521.16;;;14.89;59.20
50103;BME280;35993;52.604;10.078;2022-07-29T00:12:58;101519.50;;;14.88;59.60
50103;BME280;35993;52.604;10.078;2022-07-29T00:15:24;101511.69;;;14.92;59.18
50103;BME280;35993;52.604;10.078;2022-07-29T00:17:49;101512.72;;;14.91;59.03
50103;BME280;35993;52.604;10.078;2022-07-29T00:20:15;101510.22;;;14.89;59.41
50103;BME280;35993;52.604;10.078;2022-07-29T00:22:41;101504.19;;;14.87;59.57
50103;BME280;35993;52.604;10.078;2022-07-29T00:25:07;101489.06;;;14.85;59.91
50103;BME280;35993;52.604;10.078;2022-07-29T00:27:34;101500.59;;;14.87;59.54
50103;BME280;35993;52.604;10.078;2022-07-29T00:30:00;101483.59;;;14.85;59.56
50103;BME280;35993;52.604;10.078;2022-07-29T00:32:26;101478.56;;;14.82;59.72
50103;BME280;35993;52.604;10.078;2022-07-29T00:34:51;101477.50;;;14.83;60.18
50103;BME280;35993;52.604;10.078;2022-07-29T00:37:36;101484.25;;;14.80;60.20
50103;BME280;35993;52.604;10.078;2022-07-29T00:40:02;101476.53;;;14.77;60.11
50103;BME280;35993;52.604;10.078;2022-07-29T00:42:27;101476.72;;;14.75;60.83
50103;BME280;35993;52.604;10.078;2022-07-29T00:44:53;101473.63;;;14.72;60.69
50103;BME280;35993;52.604;10.078;2022-07-29T00:47:18;101479.09;;;14.72;60.74
50103;BME280;35993;52.604;10.078;2022-07-29T00:49:44;101472.19;;;14.69;60.85
50103;BME280;35993;52.604;10.078;2022-07-29T00:52:11;101476.00;;;14.68;61.13
50103;BME280;35993;52.604;10.078;2022-07-29T00:54:38;101479.16;;;14.65;61.29
50103;BME280;35993;52.604;10.078;2022-07-29T00:57:06;101476.84;;;14.62;61.52
50103;BME280;35993;52.604;10.078;2022-07-29T00:59:32;101466.34;;;14.59;61.61
50103;BME280;35993;52.604;10.078;2022-07-29T01:01:58;101473.50;;;14.60;61.97
50103;BME280;35993;52.604;10.078;2022-07-29T01:04:24;101470.59;;;14.55;62.12
50103;BME280;35993;52.604;10.078;2022-07-29T01:06:50;101474.38;;;14.54;62.20
50103;BME280;35993;52.604;10.078;2022-07-29T01:09:17;101468.75;;;14.49;62.54
50103;BME280;35993;52.604;10.078;2022-07-29T01:11:44;101463.53;;;14.47;62.83
50103;BME280;35993;52.604;10.078;2022-07-29T01:14:11;101468.16;;;14.47;63.04
50103;BME280;35993;52.604;10.078;2022-07-29T01:16:44;101455.97;;;14.49;62.77
50103;BME280;35993;52.604;10.078;2022-07-29T01:19:40;101452.59;;;14.47;63.05
50103;BME280;35993;52.604;10.078;2022-07-29T01:27:41;101440.47;;;14.43;64.05
50103;BME280;35993;52.604;10.078;2022-07-29T01:30:11;101438.94;;;14.47;63.35
50103;BME280;35993;52.604;10.078;2022-07-29T01:32:39;101440.84;;;14.47;63.83
50103;BME280;35993;52.604;10.078;2022-07-29T01:35:14;101433.72;;;14.46;63.97
50103;BME280;35993;52.604;10.078;2022-07-29T01:37:50;101438.50;;;14.50;63.92
50103;BME280;35993;52.604;10.078;2022-07-29T01:40:47;101431.38;;;14.49;64.17
50103;BME280;35993;52.604;10.078;2022-07-29T01:43:18;101439.97;;;14.53;63.53
50103;BME280;35993;52.604;10.078;2022-07-29T01:46:01;101434.94;;;14.50;64.10
50103;BME280;35993;52.604;10.078;2022-07-29T01:48:36;101431.97;;;14.51;64.27
50103;BME280;35993;52.604;10.078;2022-07-29T01:54:02;101421.03;;;14.51;64.60
50103;BME280;35993;52.604;10.078;2022-07-29T01:56:31;101417.25;;;14.52;64.27
50103;BME280;35993;52.604;10.078;2022-07-29T01:58:59;101412.03;;;14.51;64.47
50103;BME280;35993;52.604;10.078;2022-07-29T02:01:27;101416.84;;;14.49;64.64
50103;BME280;35993;52.604;10.078;2022-07-29T02:03:56;101417.09;;;14.47;65.03
50103;BME280;35993;52.604;10.078;2022-07-29T02:06:23;101407.22;;;14.46;65.19
50103;BME280;35993;52.604;10.078;2022-07-29T02:08:51;101399.41;;;14.50;64.90
50103;BME280;35993;52.604;10.078;2022-07-29T02:11:17;101402.38;;;14.48;65.30
50103;BME280;35993;52.604;10.078;2022-07-29T02:13:44;101392.75;;;14.46;65.47
50103;BME280;35993;52.604;10.078;2022-07-29T02:16:11;101395.25;;;14.47;65.70
50103;BME280;35993;52.604;10.078;2022-07-29T02:18:39;101399.88;;;14.47;65.59
50103;BME280;35993;52.604;10.078;2022-07-29T02:21:07;101401.56;;;14.48;65.93
50103;BME280;35993;52.604;10.078;2022-07-29T02:23:35;101407.03;;;14.48;65.92
50103;BME280;35993;52.604;10.078;2022-07-29T02:26:03;101396.28;;;14.46;66.15
50103;BME280;35993;52.604;10.078;2022-07-29T02:28:29;101398.19;;;14.46;66.51
50103;BME280;35993;52.604;10.078;2022-07-29T02:30:59;101398.66;;;14.42;66.69
50103;BME280;35993;52.604;10.078;2022-07-29T02:33:27;101395.47;;;14.46;66.35
50103;BME280;35993;52.604;10.078;2022-07-29T02:35:54;101394.41;;;14.47;66.56
50103;BME280;35993;52.604;10.078;2022-07-29T02:38:21;101391.91;;;14.45;66.81
50103;BME280;35993;52.604;10.078;2022-07-29T02:41:15;101397.59;;;14.43;66.81
50103;BME280;35993;52.604;10.078;2022-07-29T02:43:43;101395.47;;;14.46;66.95
50103;BME280;35993;52.604;10.078;2022-07-29T02:46:14;101400.13;;;14.45;66.77
50103;BME280;35993;52.604;10.078;2022-07-29T02:48:49;101392.50;;;14.47;66.88
50103;BME280;35993;52.604;10.078;2022-07-29T02:51:35;101391.28;;;14.43;67.27
50103;BME280;35993;52.604;10.078;2022-07-29T02:54:07;101397.59;;;14.43;67.38
50103;BME280;35993;52.604;10.078;2022-07-29T02:56:34;101389.84;;;14.40;67.40
50103;BME280;35993;52.604;10.078;2022-07-29T02:59:04;101389.38;;;14.43;68.20
50103;BME280;35993;52.604;10.078;2022-07-29T03:01:32;101379.53;;;14.42;67.97
50103;BME280;35993;52.604;10.078;2022-07-29T03:04:03;101384.53;;;14.46;68.03
50103;BME280;35993;52.604;10.078;2022-07-29T03:06:30;101380.38;;;14.43;68.42
50103;BME280;35993;52.604;10.078;2022-07-29T03:08:58;101379.38;;;14.37;70.07
50103;BME280;35993;52.604;10.078;2022-07-29T03:11:25;101379.22;;;14.32;72.80
50103;BME280;35993;52.604;10.078;2022-07-29T03:13:51;101386.41;;;14.26;73.68
50103;BME280;35993;52.604;10.078;2022-07-29T03:16:18;101376.13;;;14.29;71.92
50103;BME280;35993;52.604;10.078;2022-07-29T03:18:45;101380.13;;;14.26;72.56
50103;BME280;35993;52.604;10.078;2022-07-29T03:21:11;101373.66;;;14.20;72.41
50103;BME280;35993;52.604;10.078;2022-07-29T03:23:37;101380.72;;;14.28;71.92
50103;BME280;35993;52.604;10.078;2022-07-29T03:26:08;101374.44;;;14.28;72.07
50103;BME280;35993;52.604;10.078;2022-07-29T03:28:34;101368.97;;;14.28;72.57
50103;BME280;35993;52.604;10.078;2022-07-29T03:30:59;101367.13;;;14.21;73.58
50103;BME280;35993;52.604;10.078;2022-07-29T03:33:25;101367.97;;;14.22;73.75
50103;BME280;35993;52.604;10.078;2022-07-29T03:35:51;101365.84;;;14.24;73.53
50103;BME280;35993;52.604;10.078;2022-07-29T03:38:17;101367.75;;;14.23;73.55
50103;BME280;35993;52.604;10.078;2022-07-29T03:40:48;101367.59;;;14.18;74.23
50103;BME280;35993;52.604;10.078;2022-07-29T03:43:16;101362.97;;;14.19;74.75
50103;BME280;35993;52.604;10.078;2022-07-29T03:45:44;101365.31;;;14.15;75.23
50103;BME280;35993;52.604;10.078;2022-07-29T03:48:14;101369.94;;;14.15;76.20
50103;BME280;35993;52.604;10.078;2022-07-29T03:50:40;101367.22;;;14.15;75.88
50103;BME280;35993;52.604;10.078;2022-07-29T03:53:07;101370.34;;;14.18;75.69
50103;BME280;35993;52.604;10.078;2022-07-29T03:55:36;101364.81;;;14.25;74.82
50103;BME280;35993;52.604;10.078;2022-07-29T03:58:03;101368.97;;;14.28;74.95
50103;BME280;35993;52.604;10.078;2022-07-29T04:00:29;101365.78;;;14.31;74.44
50103;BME280;35993;52.604;10.078;2022-07-29T04:02:56;101366.00;;;14.29;75.31
50103;BME280;35993;52.604;10.078;2022-07-29T04:05:22;101371.03;;;14.32;74.35
50103;BME280;35993;52.604;10.078;2022-07-29T04:07:48;101379.81;;;14.34;74.87
50103;BME280;35993;52.604;10.078;2022-07-29T04:10:15;101375.81;;;14.37;74.76
50103;BME280;35993;52.604;10.078;2022-07-29T04:12:41;101380.22;;;14.38;75.00
50103;BME280;35993;52.604;10.078;2022-07-29T04:15:07;101382.31;;;14.36;76.07
50103;BME280;35993;52.604;10.078;2022-07-29T04:17:33;101380.44;;;14.36;76.15
50103;BME280;35993;52.604;10.078;2022-07-29T04:19:59;101386.97;;;14.35;76.80
50103;BME280;35993;52.604;10.078;2022-07-29T04:22:24;101397.88;;;14.35;77.79
50103;BME280;35993;52.604;10.078;2022-07-29T04:24:50;101399.81;;;14.35;78.25
50103;BME280;35993;52.604;10.078;2022-07-29T04:27:16;101395.53;;;14.39;77.94
50103;BME280;35993;52.604;10.078;2022-07-29T04:29:42;101399.97;;;14.40;78.47
50103;BME280;35993;52.604;10.078;2022-07-29T04:32:07;101409.59;;;14.42;78.14
50103;BME280;35993;52.604;10.078;2022-07-29T04:34:33;101404.28;;;14.48;77.58
50103;BME280;35993;52.604;10.078;2022-07-29T04:36:58;101400.47;;;14.49;77.63
50103;BME280;35993;52.604;10.078;2022-07-29T04:39:24;101403.81;;;14.51;77.50
50103;BME280;35993;52.604;10.078;2022-07-29T04:41:51;101401.91;;;14.51;78.38
50103;BME280;35993;52.604;10.078;2022-07-29T04:44:17;101398.75;;;14.54;77.43
50103;BME280;35993;52.604;10.078;2022-07-29T04:46:42;101392.44;;;14.54;78.11
50103;BME280;35993;52.604;10.078;2022-07-29T04:49:08;101395.09;;;14.61;76.95
50103;BME280;35993;52.604;10.078;2022-07-29T04:51:34;101387.72;;;14.61;76.49
50103;BME280;35993;52.604;10.078;2022-07-29T04:54:00;101392.97;;;14.63;76.47
50103;BME280;35993;52.604;10.078;2022-07-29T04:56:26;101391.09;;;14.63;76.77
50103;BME280;35993;52.604;10.078;2022-07-29T04:58:52;101394.88;;;14.62;76.38
50103;BME280;35993;52.604;10.078;2022-07-29T05:01:18;101399.09;;;14.65;76.43
50103;BME280;35993;52.604;10.078;2022-07-29T05:03:44;101396.97;;;14.67;76.43
50103;BME280;35993;52.604;10.078;2022-07-29T05:06:10;101397.56;;;14.69;76.16
50103;BME280;35993;52.604;10.078;2022-07-29T05:08:36;101388.53;;;14.68;76.27
50103;BME280;35993;52.604;10.078;2022-07-29T05:11:03;101395.28;;;14.66;76.48
50103;BME280;35993;52.604;10.078;2022-07-29T05:13:29;101394.66;;;14.64;76.71
50103;BME280;35993;52.604;10.078;2022-07-29T05:15:55;101390.22;;;14.63;77.39
50103;BME280;35993;52.604;10.078;2022-07-29T05:18:24;101379.97;;;14.65;77.36
50103;BME280;35993;52.604;10.078;2022-07-29T05:20:50;101388.78;;;14.67;77.54
50103;BME280;35993;52.604;10.078;2022-07-29T05:23:16;101380.97;;;14.64;77.55
50103;BME280;35993;52.604;10.078;2022-07-29T05:25:41;101384.59;;;14.64;77.99
50103;BME280;35993;52.604;10.078;2022-07-29T05:28:07;101383.50;;;14.65;77.33
50103;BME280;35993;52.604;10.078;2022-07-29T05:30:32;101381.63;;;14.66;77.51
50103;BME280;35993;52.604;10.078;2022-07-29T05:32:58;101384.38;;;14.66;77.66
50103;BME280;35993;52.604;10.078;2022-07-29T05:35:23;101386.25;;;14.65;77.74
50103;BME280;35993;52.604;10.078;2022-07-29T05:37:49;101382.22;;;14.68;78.11
50103;BME280;35993;52.604;10.078;2022-07-29T05:40:15;101378.44;;;14.69;77.74
50103;BME280;35993;52.604;10.078;2022-07-29T05:42:41;101380.72;;;14.72;78.08
50103;BME280;35993;52.604;10.078;2022-07-29T05:45:07;101384.66;;;14.76;78.04
50103;BME280;35993;52.604;10.078;2022-07-29T05:47:33;101387.53;;;14.81;78.13
50103;BME280;35993;52.604;10.078;2022-07-29T05:49:59;101386.47;;;14.82;77.86
50103;BME280;35993;52.604;10.078;2022-07-29T05:52:25;101386.84;;;14.86;77.88
50103;BME280;35993;52.604;10.078;2022-07-29T05:54:51;101395.19;;;14.91;78.13
50103;BME280;35993;52.604;10.078;2022-07-29T05:57:22;101396.41;;;14.95;77.89
50103;BME280;35993;52.604;10.078;2022-07-29T05:59:49;101389.66;;;14.98;78.52
50103;BME280;35993;52.604;10.078;2022-07-29T06:02:15;101396.31;;;15.02;79.36
50103;BME280;35993;52.604;10.078;2022-07-29T06:04:40;101392.91;;;15.06;78.82
50103;BME280;35993;52.604;10.078;2022-07-29T06:07:06;101397.44;;;15.13;78.53
50103;BME280;35993;52.604;10.078;2022-07-29T06:09:33;101380.59;;;15.16;77.76
50103;BME280;35993;52.604;10.078;2022-07-29T06:11:59;101384.28;;;15.21;77.36
50103;BME280;35993;52.604;10.078;2022-07-29T06:14:25;101377.31;;;15.26;77.26
50103;BME280;35993;52.604;10.078;2022-07-29T06:16:52;101379.47;;;15.35;77.44
50103;BME280;35993;52.604;10.078;2022-07-29T06:19:18;101379.97;;;15.44;76.76
50103;BME280;35993;52.604;10.078;2022-07-29T06:21:45;101385.81;;;15.48;76.35
50103;BME280;35993;52.604;10.078;2022-07-29T06:24:14;101382.72;;;15.56;76.74
50103;BME280;35993;52.604;10.078;2022-07-29T06:26:41;101389.88;;;15.69;76.14
50103;BME280;35993;52.604;10.078;2022-07-29T06:29:07;101393.13;;;15.78;76.31
50103;BME280;35993;52.604;10.078;2022-07-29T06:31:34;101387.19;;;15.81;76.65
50103;BME280;35993;52.604;10.078;2022-07-29T06:33:59;101393.19;;;15.89;76.21
50103;BME280;35993;52.604;10.078;2022-07-29T06:36:25;101390.34;;;15.96;76.17
50103;BME280;35993;52.604;10.078;2022-07-29T06:38:51;101383.56;;;15.99;75.74
50103;BME280;35993;52.604;10.078;2022-07-29T06:41:16;101385.44;;;15.98;75.52
50103;BME280;35993;52.604;10.078;2022-07-29T06:43:44;101381.75;;;16.04;75.91
50103;BME280;35993;52.604;10.078;2022-07-29T06:46:14;101376.41;;;16.10;75.93
50103;BME280;35993;52.604;10.078;2022-07-29T06:48:41;101378.44;;;16.14;75.51
50103;BME280;35993;52.604;10.078;2022-07-29T06:51:08;101374.41;;;16.17;75.36
50103;BME280;35993;52.604;10.078;2022-07-29T06:53:34;101376.06;;;16.18;75.33
50103;BME280;35993;52.604;10.078;2022-07-29T06:56:01;101380.00;;;16.22;75.14
50103;BME280;35993;52.604;10.078;2022-07-29T06:58:28;101377.97;;;16.29;75.05
50103;BME280;35993;52.604;10.078;2022-07-29T07:00:55;101371.63;;;16.41;75.01
50103;BME280;35993;52.604;10.078;2022-07-29T07:03:21;101378.03;;;16.58;74.49
50103;BME280;35993;52.604;10.078;2022-07-29T07:05:48;101377.03;;;16.76;73.72
50103;BME280;35993;52.604;10.078;2022-07-29T07:08:14;101379.06;;;16.93;72.96
50103;BME280;35993;52.604;10.078;2022-07-29T07:10:42;101387.03;;;17.06;72.92
50103;BME280;35993;52.604;10.078;2022-07-29T07:13:07;101382.81;;;17.15;72.34
50103;BME280;35993;52.604;10.078;2022-07-29T07:15:34;101371.50;;;17.29;71.87
50103;BME280;35993;52.604;10.078;2022-07-29T07:18:00;101377.53;;;17.43;72.09
50103;BME280;35993;52.604;10.078;2022-07-29T07:20:26;101376.16;;;17.57;71.32
50103;BME280;35993;52.604;10.078;2022-07-29T07:22:51;101383.59;;;17.74;70.83
50103;BME280;35993;52.604;10.078;2022-07-29T07:25:17;101381.75;;;17.79;69.74
50103;BME280;35993;52.604;10.078;2022-07-29T07:27:47;101375.09;;;17.92;68.56
50103;BME280;35993;52.604;10.078;2022-07-29T07:30:13;101368.38;;;18.00;67.92
50103;BME280;35993;52.604;10.078;2022-07-29T07:32:39;101371.44;;;18.04;67.92
50103;BME280;35993;52.604;10.078;2022-07-29T07:35:08;101376.34;;;18.18;67.89
50103;BME280;35993;52.604;10.078;2022-07-29T07:37:35;101367.66;;;18.27;67.35
50103;BME280;35993;52.604;10.078;2022-07-29T07:40:01;101376.25;;;18.30;66.37
50103;BME280;35993;52.604;10.078;2022-07-29T07:42:27;101379.81;;;18.31;65.85
50103;BME280;35993;52.604;10.078;2022-07-29T07:44:53;101370.81;;;18.36;65.40
50103;BME280;35993;52.604;10.078;2022-07-29T07:47:19;101379.31;;;18.34;65.78
50103;BME280;35993;52.604;10.078;2022-07-29T07:49:49;101372.41;;;18.31;66.13
50103;BME280;35993;52.604;10.078;2022-07-29T07:52:16;101379.56;;;18.32;66.15
50103;BME280;35993;52.604;10.078;2022-07-29T07:54:43;101377.13;;;18.36;66.16
50103;BME280;35993;52.604;10.078;2022-07-29T07:57:10;101367.56;;;18.39;66.51
50103;BME280;35993;52.604;10.078;2022-07-29T07:59:36;101377.97;;;18.37;66.27
50103;BME280;35993;52.604;10.078;2022-07-29T08:02:02;101382.88;;;18.34;66.56
50103;BME280;35993;52.604;10.078;2022-07-29T08:04:28;101377.97;;;18.37;66.63
50103;BME280;35993;52.604;10.078;2022-07-29T08:06:55;101375.88;;;18.44;66.24
50103;BME280;35993;52.604;10.078;2022-07-29T08:09:22;101372.44;;;18.54;65.41
50103;BME280;35993;52.604;10.078;2022-07-29T08:11:48;101377.63;;;18.72;65.31
50103;BME280;35993;52.604;10.078;2022-07-29T08:14:13;101383.56;;;18.86;64.70
50103;BME280;35993;52.604;10.078;2022-07-29T08:16:40;101376.16;;;18.87;64.75
50103;BME280;35993;52.604;10.078;2022-07-29T08:19:06;101377.50;;;18.84;64.82
50103;BME280;35993;52.604;10.078;2022-07-29T08:21:32;101372.56;;;18.86;64.79
50103;BME280;35993;52.604;10.078;2022-07-29T08:23:57;101378.16;;;18.91;64.04
50103;BME280;35993;52.604;10.078;2022-07-29T08:26:43;101374.06;;;18.94;64.57
50103;BME280;35993;52.604;10.078;2022-07-29T08:29:09;101370.59;;;19.04;63.33
50103;BME280;35993;52.604;10.078;2022-07-29T08:31:36;101368.81;;;19.14;63.03
50103;BME280;35993;52.604;10.078;2022-07-29T08:34:02;101368.06;;;19.24;62.29
50103;BME280;35993;52.604;10.078;2022-07-29T08:36:29;101368.44;;;19.33;62.42
50103;BME280;35993;52.604;10.078;2022-07-29T08:38:55;101371.91;;;19.51;61.95
50103;BME280;35993;52.604;10.078;2022-07-29T08:41:21;101368.06;;;19.52;62.39
50103;BME280;35993;52.604;10.078;2022-07-29T08:43:48;101371.66;;;19.52;62.25
50103;BME280;35993;52.604;10.078;2022-07-29T08:46:14;101371.19;;;19.60;61.70
50103;BME280;35993;52.604;10.078;2022-07-29T08:48:41;101373.97;;;19.65;61.66
50103;BME280;35993;52.604;10.078;2022-07-29T08:51:07;101374.03;;;19.71;60.86
50103;BME280;35993;52.604;10.078;2022-07-29T08:53:33;101371.56;;;19.74;60.50
50103;BME280;35993;52.604;10.078;2022-07-29T08:56:00;101372.66;;;19.73;60.43
50103;BME280;35993;52.604;10.078;2022-07-29T08:58:31;101361.06;;;19.71;60.24
50103;BME280;35993;52.604;10.078;2022-07-29T09:01:01;101366.00;;;19.69;59.74
50103;BME280;35993;52.604;10.078;2022-07-29T09:03:31;101370.09;;;19.67;59.31
50103;BME280;35993;52.604;10.078;2022-07-29T09:06:01;101364.59;;;19.67;58.93
50103;BME280;35993;52.604;10.078;2022-07-29T09:08:27;101370.69;;;19.69;58.85
50103;BME280;35993;52.604;10.078;2022-07-29T09:10:54;101370.72;;;19.74;59.24
50103;BME280;35993;52.604;10.078;2022-07-29T09:13:21;101367.72;;;19.75;59.38
50103;BME280;35993;52.604;10.078;2022-07-29T09:15:48;101364.69;;;19.77;59.28
50103;BME280;35993;52.604;10.078;2022-07-29T09:21:06;101365.38;;;19.89;59.03
50103;BME280;35993;52.604;10.078;2022-07-29T09:24:11;101366.25;;;19.95;58.26
50103;BME280;35993;52.604;10.078;2022-07-29T09:26:42;101363.53;;;20.00;58.21
50103;BME280;35993;52.604;10.078;2022-07-29T09:29:10;101358.31;;;20.04;57.84
50103;BME280;35993;52.604;10.078;2022-07-29T09:31:39;101361.94;;;20.09;57.35
50103;BME280;35993;52.604;10.078;2022-07-29T09:34:06;101356.16;;;20.11;57.73
50103;BME280;35993;52.604;10.078;2022-07-29T09:36:45;101350.94;;;20.14;57.69
50103;BME280;35993;52.604;10.078;2022-07-29T09:39:12;101356.22;;;20.21;57.70
50103;BME280;35993;52.604;10.078;2022-07-29T09:41:50;101356.53;;;20.25;57.82
50103;BME280;35993;52.604;10.078;2022-07-29T09:44:19;101346.31;;;20.25;57.67
50103;BME280;35993;52.604;10.078;2022-07-29T09:49:20;101343.38;;;20.37;58.04
50103;BME280;35993;52.604;10.078;2022-07-29T09:51:45;101348.34;;;20.45;58.11
50103;BME280;35993;52.604;10.078;2022-07-29T09:54:27;101339.59;;;20.59;57.35
50103;BME280;35993;52.604;10.078;2022-07-29T09:56:54;101335.22;;;20.68;56.40
50103;BME280;35993;52.604;10.078;2022-07-29T09:59:20;101339.41;;;20.76;55.77
50103;BME280;35993;52.604;10.078;2022-07-29T10:01:48;101343.34;;;20.95;55.70
50103;BME280;35993;52.604;10.078;2022-07-29T10:04:16;101335.94;;;21.22;55.21
50103;BME280;35993;52.604;10.078;2022-07-29T10:07:01;101343.19;;;21.59;54.50
50103;BME280;35993;52.604;10.078;2022-07-29T10:09:27;101340.97;;;21.82;52.96
50103;BME280;35993;52.604;10.078;2022-07-29T10:12:11;101336.53;;;21.96;52.28
50103;BME280;35993;52.604;10.078;2022-07-29T10:14:42;101328.53;;;21.84;52.25
50103;BME280;35993;52.604;10.078;2022-07-29T10:17:09;101330.75;;;21.77;52.84
50103;BME280;35993;52.604;10.078;2022-07-29T10:19:36;101329.38;;;21.74;53.42
50103;BME280;35993;52.604;10.078;2022-07-29T10:22:05;101328.78;;;21.88;53.53
50103;BME280;35993;52.604;10.078;2022-07-29T10:24:32;101322.41;;;22.03;52.70
50103;BME280;35993;52.604;10.078;2022-07-29T10:26:59;101319.63;;;22.13;51.76
50103;BME280;35993;52.604;10.078;2022-07-29T10:29:25;101322.97;;;22.05;51.74
50103;BME280;35993;52.604;10.078;2022-07-29T10:37:19;101313.06;;;21.88;51.88
50103;BME280;35993;52.604;10.078;2022-07-29T10:43:08;101316.34;;;21.90;52.31
50103;BME280;35993;52.604;10.078;2022-07-29T10:45:40;101311.66;;;21.91;52.16
50103;BME280;35993;52.604;10.078;2022-07-29T10:48:06;101312.47;;;21.91;52.21
50103;BME280;35993;52.604;10.078;2022-07-29T10:50:52;101312.19;;;21.93;52.21
50103;BME280;35993;52.604;10.078;2022-07-29T10:53:20;101311.09;;;21.89;52.56
50103;BME280;35993;52.604;10.078;2022-07-29T10:55:46;101311.38;;;21.87;52.06
50103;BME280;35993;52.604;10.078;2022-07-29T10:58:17;101303.38;;;21.86;52.77
50103;BME280;35993;52.604;10.078;2022-07-29T11:00:48;101304.47;;;21.90;52.69
50103;BME280;35993;52.604;10.078;2022-07-29T11:03:46;101311.69;;;21.86;53.08
50103;BME280;35993;52.604;10.078;2022-07-29T11:06:13;101307.81;;;21.87;52.77
50103;BME280;35993;52.604;10.078;2022-07-29T11:08:39;101303.09;;;21.87;52.69
50103;BME280;35993;52.604;10.078;2022-07-29T11:13:47;101310.56;;;21.97;52.83
50103;BME280;35993;52.604;10.078;2022-07-29T11:16:17;101316.06;;;22.02;52.08
50103;BME280;35993;52.604;10.078;2022-07-29T11:21:39;101322.66;;;22.22;51.50
50103;BME280;35993;52.604;10.078;2022-07-29T11:24:17;101315.97;;;22.33;51.45
50103;BME280;35993;52.604;10.078;2022-07-29T11:26:43;101316.53;;;22.40;50.90
50103;BME280;35993;52.604;10.078;2022-07-29T11:29:20;101313.47;;;22.47;51.59
50103;BME280;35993;52.604;10.078;2022-07-29T11:31:50;101307.63;;;22.54;50.97
50103;BME280;35993;52.604;10.078;2022-07-29T11:34:23;101309.56;;;22.58;50.90
50103;BME280;35993;52.604;10.078;2022-07-29T11:39:42;101304.53;;;22.66;50.52
50103;BME280;35993;52.604;10.078;2022-07-29T11:44:57;101301.41;;;22.83;49.69
50103;BME280;35993;52.604;10.078;2022-07-29T11:47:24;101299.41;;;22.88;50.00
50103;BME280;35993;52.604;10.078;2022-07-29T11:49:51;101295.81;;;22.93;49.54
50103;BME280;35993;52.604;10.078;2022-07-29T11:52:18;101292.44;;;22.96;49.41
50103;BME280;35993;52.604;10.078;2022-07-29T11:54:44;101293.53;;;23.00;49.76
50103;BME280;35993;52.604;10.078;2022-07-29T11:57:12;101294.03;;;23.07;48.93
50103;BME280;35993;52.604;10.078;2022-07-29T11:59:41;101299.84;;;23.11;48.87
50103;BME280;35993;52.604;10.078;2022-07-29T12:02:07;101299.84;;;23.11;47.81
50103;BME280;35993;52.604;10.078;2022-07-29T12:04:34;101285.44;;;23.09;47.39
50103;BME280;35993;52.604;10.078;2022-07-29T12:07:13;101287.44;;;23.03;47.82
50103;BME280;35993;52.604;10.078;2022-07-29T12:09:38;101294.88;;;23.03;47.88
50103;BME280;35993;52.604;10.078;2022-07-29T12:12:04;101296.50;;;23.09;47.81
50103;BME280;35993;52.604;10.078;2022-07-29T12:14:32;101293.75;;;23.09;47.25
50103;BME280;35993;52.604;10.078;2022-07-29T12:16:59;101287.09;;;23.10;47.90
50103;BME280;35993;52.604;10.078;2022-07-29T12:19:28;101290.13;;;23.14;48.13
50103;BME280;35993;52.604;10.078;2022-07-29T12:21:55;101284.28;;;23.20;47.95
50103;BME280;35993;52.604;10.078;2022-07-29T12:24:21;101278.69;;;23.26;47.95
50103;BME280;35993;52.604;10.078;2022-07-29T12:26:55;101282.53;;;23.30;48.25
50103;BME280;35993;52.604;10.078;2022-07-29T12:29:21;101278.56;;;23.41;48.06
50103;BME280;35993;52.604;10.078;2022-07-29T12:31:52;101272.69;;;23.48;48.16
50103;BME280;35993;52.604;10.078;2022-07-29T12:34:22;101281.25;;;23.51;48.19
50103;BME280;35993;52.604;10.078;2022-07-29T12:36:48;101277.06;;;23.54;47.97
50103;BME280;35993;52.604;10.078;2022-07-29T12:39:16;101277.63;;;23.56;48.21
50103;BME280;35993;52.604;10.078;2022-07-29T12:41:42;101271.47;;;23.59;47.67
50103;BME280;35993;52.604;10.078;2022-07-29T12:44:09;101275.66;;;23.56;46.85
50103;BME280;35993;52.604;10.078;2022-07-29T12:46:35;101269.81;;;23.63;46.42
50103;BME280;35993;52.604;10.078;2022-07-29T12:49:01;101267.78;;;23.69;46.02
50103;BME280;35993;52.604;10.078;2022-07-29T12:51:36;101265.28;;;23.72;46.15
50103;BME280;35993;52.604;10.078;2022-07-29T12:54:14;101272.94;;;23.81;47.01
50103;BME280;35993;52.604;10.078;2022-07-29T12:56:42;101271.47;;;23.88;46.56
50103;BME280;35993;52.604;10.078;2022-07-29T13:01:38;101258.59;;;24.03;45.53
50103;BME280;35993;52.604;10.078;2022-07-29T13:04:04;101260.88;;;24.44;45.72
50103;BME280;35993;52.604;10.078;2022-07-29T13:09:16;101255.09;;;25.17;44.58
50103;BME280;35993;52.604;10.078;2022-07-29T13:11:49;101259.66;;;25.27;43.98
50103;BME280;35993;52.604;10.078;2022-07-29T13:14:45;101261.69;;;25.21;42.97
50103;BME280;35993;52.604;10.078;2022-07-29T13:17:13;101264.66;;;25.11;43.40
50103;BME280;35993;52.604;10.078;2022-07-29T13:22:07;101256.47;;;25.00;44.08
50103;BME280;35993;52.604;10.078;2022-07-29T13:24:33;101250.31;;;24.84;44.78
50103;BME280;35993;52.604;10.078;2022-07-29T13:26:59;101250.78;;;24.73;45.07